createdAt,value
2023-01-13T00:00:00.515Z,37.33
2023-01-13T00:02:27.550Z,24.88
2023-01-13T00:04:53.957Z,34.47
2023-01-13T00:07:20.301Z,33.55
2023-01-13T00:09:46.832Z,28.85
2023-01-13T00:12:13.177Z,41.33
2023-01-13T00:14:39.464Z,33.13
2023-01-13T00:17:05.796Z,35.03
2023-01-13T00:19:32.083Z,33.15
2023-01-13T00:21:58.416Z,33.65
2023-01-13T00:24:24.767Z,32.03
2023-01-13T00:26:52.522Z,30.60
2023-01-13T00:29:18.838Z,41.92
2023-01-13T00:31:45.180Z,37.95
2023-01-13T00:34:11.501Z,31.40
2023-01-13T00:36:37.807Z,28.17
2023-01-13T00:39:04.479Z,43.65
2023-01-13T00:41:50.754Z,35.15
2023-01-13T00:44:17.141Z,36.60
2023-01-13T00:46:43.589Z,34.97
2023-01-13T00:49:10.034Z,27.55
2023-01-13T00:51:36.323Z,40.83
2023-01-13T00:54:02.659Z,31.48
2023-01-13T00:56:39.793Z,39.10
2023-01-13T00:59:07.911Z,34.92
2023-01-13T01:01:34.353Z,39.90
2023-01-13T01:04:00.810Z,40.20
2023-01-13T01:06:27.983Z,42.53
2023-01-13T01:08:54.944Z,37.17
2023-01-13T01:11:22.775Z,32.90
2023-01-13T01:13:49.229Z,43.28
2023-01-13T01:16:17.200Z,43.33
2023-01-13T01:18:44.573Z,39.13
2023-01-13T01:21:11.486Z,40.85
2023-01-13T01:23:38.592Z,32.65
2023-01-13T01:26:06.471Z,38.85
2023-01-13T01:28:33.490Z,51.17
2023-01-13T01:30:59.960Z,34.10
2023-01-13T01:33:26.560Z,45.10
2023-01-13T01:35:53.272Z,35.53
2023-01-13T01:38:21.177Z,44.45
2023-01-13T01:40:47.792Z,30.38
2023-01-13T01:43:33.980Z,46.80
2023-01-13T01:46:00.503Z,41.80
2023-01-13T01:48:27.988Z,46.15
2023-01-13T01:50:54.499Z,32.92
2023-01-13T01:53:24.121Z,36.60
2023-01-13T01:55:50.578Z,47.58
2023-01-13T01:58:22.079Z,50.05
2023-01-13T02:00:48.760Z,39.83
2023-01-13T02:03:16.057Z,32.75
2023-01-13T02:05:42.397Z,47.53
2023-01-13T02:08:09.872Z,16.80
2023-01-13T02:10:36.409Z,40.17
2023-01-13T02:13:05.234Z,37.83
2023-01-13T02:15:50.195Z,45.05
2023-01-13T02:18:37.613Z,38.42
2023-01-13T02:21:19.137Z,32.92
2023-01-13T02:24:13.143Z,46.33
2023-01-13T02:27:07.475Z,34.40
2023-01-13T02:30:01.832Z,40.17
2023-01-13T02:32:50.718Z,24.70
2023-01-13T02:35:29.285Z,40.95
2023-01-13T02:37:56.695Z,46.38
2023-01-13T02:40:29.551Z,33.55
2023-01-13T02:43:17.675Z,38.53
2023-01-13T02:45:46.334Z,28.08
2023-01-13T02:48:13.996Z,45.90
2023-01-13T02:50:46.805Z,33.83
2023-01-13T02:55:42.695Z,56.30
2023-01-13T02:58:11.767Z,36.38
2023-01-13T03:00:39.012Z,39.47
2023-01-13T03:03:05.429Z,44.13
2023-01-13T03:05:32.418Z,34.45
2023-01-13T03:08:01.708Z,29.50
2023-01-13T03:10:28.185Z,37.45
2023-01-13T03:13:00.414Z,32.60
2023-01-13T03:15:45.531Z,45.78
2023-01-13T03:18:30.679Z,40.03
2023-01-13T03:21:06.159Z,30.77
2023-01-13T03:23:39.705Z,31.25
2023-01-13T03:26:13.070Z,43.05
2023-01-13T03:28:58.069Z,35.63
2023-01-13T03:31:28.927Z,34.72
2023-01-13T03:33:57.470Z,36.08
2023-01-13T03:36:25.916Z,40.25
2023-01-13T03:38:54.356Z,41.00
2023-01-13T03:41:27.524Z,48.85
2023-01-13T03:44:16.122Z,44.22
2023-01-13T03:46:46.830Z,36.67
2023-01-13T03:49:16.680Z,33.40
2023-01-13T03:51:45.776Z,39.00
2023-01-13T03:54:12.653Z,29.65
2023-01-13T03:56:41.377Z,30.05
2023-01-13T03:59:11.626Z,29.63
2023-01-13T04:01:51.197Z,25.95
2023-01-13T04:04:24.580Z,37.42
2023-01-13T04:06:54.975Z,24.65
2023-01-13T04:09:27.279Z,30.80
2023-01-13T04:11:56.178Z,30.10
2023-01-13T04:14:23.311Z,25.65
2023-01-13T04:16:49.731Z,22.48
2023-01-13T04:19:16.121Z,25.58
2023-01-13T04:21:42.510Z,30.38
2023-01-13T04:24:08.883Z,23.35
2023-01-13T04:26:35.233Z,9.80
2023-01-13T04:29:01.587Z,22.67
2023-01-13T04:31:27.998Z,26.65
2023-01-13T04:33:54.444Z,21.45
2023-01-13T04:36:25.035Z,14.82
2023-01-13T04:38:51.542Z,21.88
2023-01-13T04:41:17.929Z,22.55
2023-01-13T04:43:44.295Z,14.32
2023-01-13T04:46:10.709Z,13.23
2023-01-13T04:48:37.110Z,7.18
2023-01-13T04:51:03.438Z,20.98
2023-01-13T04:53:29.818Z,14.85
2023-01-13T04:55:56.133Z,16.05
2023-01-13T04:58:22.548Z,17.85
2023-01-13T05:00:50.008Z,10.68
2023-01-13T05:03:16.466Z,12.43
2023-01-13T05:05:43.136Z,12.25
2023-01-13T05:08:09.498Z,11.80
2023-01-13T05:10:36.481Z,16.52
2023-01-13T05:13:21.586Z,17.42
2023-01-13T05:16:06.876Z,8.10
2023-01-13T05:18:33.446Z,12.90
2023-01-13T05:20:59.836Z,14.35
2023-01-13T05:23:44.891Z,14.73
2023-01-13T05:26:11.307Z,21.30
2023-01-13T05:28:37.652Z,18.65
2023-01-13T05:31:04.043Z,15.07
2023-01-13T05:33:30.473Z,16.52
2023-01-13T05:35:56.792Z,15.57
2023-01-13T05:38:23.121Z,15.10
2023-01-13T05:41:08.044Z,18.67
2023-01-13T05:43:34.818Z,20.02
2023-01-13T05:46:05.050Z,24.85
2023-01-13T05:48:32.776Z,25.50
2023-01-13T05:50:59.443Z,13.43
2023-01-13T05:53:26.233Z,19.15
2023-01-13T05:55:52.777Z,18.63
2023-01-13T05:58:20.492Z,25.83
2023-01-13T06:00:46.909Z,22.88
2023-01-13T06:03:14.163Z,21.20
2023-01-13T06:05:40.612Z,24.45
2023-01-13T06:08:07.397Z,22.17
2023-01-13T06:10:33.984Z,11.65
2023-01-13T06:13:00.370Z,13.52
2023-01-13T06:15:26.727Z,19.67
2023-01-13T06:17:53.836Z,21.67
2023-01-13T06:20:20.532Z,12.82
2023-01-13T06:22:47.874Z,23.52
2023-01-13T06:25:30.409Z,16.05
2023-01-13T06:27:58.917Z,22.90
2023-01-13T06:30:26.410Z,31.38
2023-01-13T06:32:54.280Z,20.27
2023-01-13T06:35:23.586Z,26.20
2023-01-13T06:37:51.459Z,25.10
2023-01-13T06:40:18.011Z,24.38
2023-01-13T06:43:03.227Z,21.92
2023-01-13T06:45:30.500Z,24.08
2023-01-13T06:47:58.407Z,18.17
2023-01-13T06:50:25.047Z,19.40
2023-01-13T06:52:51.678Z,17.65
2023-01-13T06:55:18.020Z,20.02
2023-01-13T06:58:02.196Z,20.77
2023-01-13T07:00:28.716Z,23.15
2023-01-13T07:03:06.926Z,22.67
2023-01-13T07:05:33.387Z,21.55
2023-01-13T07:07:59.747Z,23.98
2023-01-13T07:10:26.196Z,22.88
2023-01-13T07:13:10.897Z,23.95
2023-01-13T07:15:37.285Z,31.83
2023-01-13T07:18:03.707Z,22.17
2023-01-13T07:20:30.503Z,21.55
2023-01-13T07:22:57.509Z,26.92
2023-01-13T07:25:24.053Z,24.95
2023-01-13T07:27:50.383Z,23.17
2023-01-13T07:30:16.988Z,27.75
2023-01-13T07:32:43.316Z,19.77
2023-01-13T07:35:09.663Z,23.55
2023-01-13T07:37:37.196Z,26.98
2023-01-13T07:40:04.539Z,27.67
2023-01-13T07:42:49.422Z,30.23
2023-01-13T07:45:15.764Z,22.52
2023-01-13T07:47:42.118Z,24.00
2023-01-13T07:50:08.892Z,21.85
2023-01-13T07:52:35.214Z,27.38
2023-01-13T07:55:01.594Z,20.30
2023-01-13T07:57:27.952Z,26.35
2023-01-13T07:59:54.340Z,22.40
2023-01-13T08:02:21.604Z,29.52
2023-01-13T08:04:48.097Z,22.73
2023-01-13T08:07:14.447Z,20.67
2023-01-13T08:09:40.807Z,24.60
2023-01-13T08:12:25.695Z,32.20
2023-01-13T08:14:53.941Z,29.48
2023-01-13T08:17:20.665Z,26.13
2023-01-13T08:19:47.443Z,26.92
2023-01-13T08:22:13.823Z,25.95
2023-01-13T08:24:40.153Z,26.55
2023-01-13T08:27:06.502Z,26.40
2023-01-13T08:29:32.851Z,26.67
2023-01-13T08:31:59.241Z,19.10
2023-01-13T08:34:25.592Z,28.40
2023-01-13T08:36:51.923Z,32.92
2023-01-13T08:39:18.657Z,23.70
2023-01-13T08:41:58.286Z,22.20
2023-01-13T08:44:28.781Z,15.70
2023-01-13T08:46:55.642Z,26.02
2023-01-13T08:49:22.460Z,19.23
2023-01-13T08:51:49.158Z,34.65
2023-01-13T08:54:15.608Z,29.83
2023-01-13T08:56:42.757Z,24.25
2023-01-13T08:59:13.046Z,29.00
2023-01-13T09:01:40.836Z,26.45
2023-01-13T09:04:08.719Z,27.10
2023-01-13T09:06:35.141Z,37.70
2023-01-13T09:09:02.409Z,30.52
2023-01-13T09:11:52.385Z,27.58
2023-01-13T09:14:19.504Z,23.30
2023-01-13T09:16:45.860Z,20.48
2023-01-13T09:19:12.244Z,20.88
2023-01-13T09:21:38.631Z,31.85
2023-01-13T09:24:05.060Z,20.33
2023-01-13T09:26:31.355Z,25.13
2023-01-13T09:28:57.689Z,17.88
2023-01-13T09:31:24.068Z,22.88
2023-01-13T09:34:19.905Z,24.35
2023-01-13T09:36:46.264Z,28.48
2023-01-13T09:39:12.966Z,37.17
2023-01-13T09:42:05.959Z,7.22
2023-01-13T09:44:39.154Z,21.10
2023-01-13T09:47:09.319Z,21.17
2023-01-13T09:49:35.677Z,36.85
2023-01-13T09:52:04.928Z,17.35
2023-01-13T09:54:54.530Z,24.50
2023-01-13T09:57:21.664Z,18.38
2023-01-13T09:59:48.616Z,22.50
2023-01-13T10:02:27.145Z,20.75
2023-01-13T10:05:10.496Z,30.15
2023-01-13T10:07:38.395Z,27.63
2023-01-13T10:10:09.150Z,22.80
2023-01-13T10:12:54.667Z,25.42
2023-01-13T10:15:23.145Z,18.83
2023-01-13T10:17:53.012Z,20.48
2023-01-13T10:20:28.924Z,18.80
2023-01-13T10:23:14.025Z,22.73
2023-01-13T10:25:46.248Z,14.20
2023-01-13T10:28:14.838Z,22.42
2023-01-13T10:30:43.381Z,28.20
2023-01-13T10:33:12.609Z,27.30
2023-01-13T10:35:49.867Z,33.65
2023-01-13T10:38:17.307Z,26.08
2023-01-13T10:40:51.003Z,28.75
2023-01-13T10:43:17.663Z,27.08
2023-01-13T10:45:52.652Z,23.88
2023-01-13T10:48:19.051Z,30.30
2023-01-13T10:50:48.153Z,28.63
2023-01-13T10:53:24.581Z,26.45
2023-01-13T10:56:04.322Z,26.10
2023-01-13T10:58:30.664Z,21.42
2023-01-13T11:01:01.329Z,17.30
2023-01-13T11:03:35.397Z,20.38
2023-01-13T11:06:02.035Z,13.50
2023-01-13T11:08:29.976Z,20.38
2023-01-13T11:10:57.580Z,24.15
2023-01-13T11:13:57.606Z,29.65
2023-01-13T11:16:25.288Z,29.45
2023-01-13T11:19:11.756Z,26.75
2023-01-13T11:21:40.159Z,27.65
2023-01-13T11:24:12.891Z,19.60
2023-01-13T11:29:10.975Z,15.75
2023-01-13T11:31:41.002Z,15.80
2023-01-13T11:34:36.735Z,20.20
2023-01-13T11:37:07.233Z,24.98
2023-01-13T11:39:33.820Z,14.07
2023-01-13T11:42:24.025Z,18.00
2023-01-13T11:45:10.610Z,9.57
2023-01-13T11:47:37.110Z,17.75
2023-01-13T11:50:06.938Z,12.48
2023-01-13T11:52:42.548Z,22.52
2023-01-13T11:55:23.579Z,12.02
2023-01-13T11:57:59.238Z,12.85
2023-01-13T12:00:57.973Z,14.15
2023-01-13T12:03:30.824Z,17.38
2023-01-13T12:06:09.194Z,22.42
2023-01-13T12:08:35.602Z,19.23
2023-01-13T12:11:10.411Z,11.93
2023-01-13T12:13:45.739Z,16.40
2023-01-13T12:16:23.596Z,19.15
2023-01-13T12:18:59.104Z,17.63
2023-01-13T12:21:47.558Z,24.65
2023-01-13T12:24:25.965Z,20.50
2023-01-13T12:26:57.257Z,15.85
2023-01-13T12:29:30.514Z,18.38
2023-01-13T12:31:57.635Z,23.52
2023-01-13T12:34:41.834Z,10.73
2023-01-13T12:37:14.400Z,11.18
2023-01-13T12:39:52.988Z,18.15
2023-01-13T12:43:07.273Z,15.73
2023-01-13T12:45:33.854Z,13.98
2023-01-13T12:48:00.308Z,15.88
2023-01-13T12:50:26.734Z,12.30
2023-01-13T12:52:57.158Z,11.93
2023-01-13T12:55:28.026Z,9.02
2023-01-13T12:57:58.662Z,9.05
2023-01-13T13:00:31.655Z,20.30
2023-01-13T13:03:13.794Z,17.20
2023-01-13T13:05:47.748Z,19.88
2023-01-13T13:08:19.931Z,9.52
2023-01-13T13:11:01.751Z,9.20
2023-01-13T13:13:47.502Z,15.32
2023-01-13T13:16:25.954Z,11.73
2023-01-13T13:18:52.946Z,18.60
2023-01-13T13:21:19.358Z,14.52
2023-01-13T13:23:57.501Z,9.77
2023-01-13T13:26:24.877Z,13.30
2023-01-13T13:29:05.624Z,18.75
2023-01-13T13:31:34.978Z,12.02
2023-01-13T13:34:01.346Z,10.93
2023-01-13T13:36:27.779Z,13.38
2023-01-13T13:39:13.031Z,12.50
2023-01-13T13:42:01.375Z,6.63
2023-01-13T13:44:56.980Z,9.27
2023-01-13T13:47:23.373Z,15.98
2023-01-13T13:49:53.754Z,14.40
2023-01-13T13:52:20.211Z,14.55
2023-01-13T13:54:49.302Z,18.38
2023-01-13T13:57:23.116Z,9.48
2023-01-13T13:59:53.222Z,12.07
2023-01-13T14:02:22.664Z,14.27
2023-01-13T14:04:49.181Z,9.32
2023-01-13T14:07:21.955Z,7.95
2023-01-13T14:12:17.832Z,9.43
2023-01-13T14:14:44.695Z,13.55
2023-01-13T14:17:18.700Z,16.35
2023-01-13T14:19:50.904Z,15.15
2023-01-13T14:22:17.330Z,15.07
2023-01-13T14:24:47.520Z,5.57
2023-01-13T14:27:15.769Z,12.13
2023-01-13T14:29:42.361Z,11.43
2023-01-13T14:32:09.047Z,12.88
2023-01-13T14:34:35.581Z,18.63
2023-01-13T14:37:02.914Z,15.90
2023-01-13T14:39:47.401Z,12.18
2023-01-13T14:42:16.228Z,13.30
2023-01-13T14:44:46.305Z,15.10
2023-01-13T14:47:19.600Z,15.10
2023-01-13T14:49:58.799Z,13.20
2023-01-13T14:52:27.751Z,13.95
2023-01-13T14:55:06.761Z,17.50
2023-01-13T14:57:33.809Z,18.98
2023-01-13T15:00:15.221Z,9.40
2023-01-13T15:03:04.368Z,11.63
2023-01-13T15:05:32.448Z,17.15
2023-01-13T15:08:01.638Z,14.57
2023-01-13T15:10:38.262Z,9.05
2023-01-13T15:13:05.694Z,11.55
2023-01-13T15:15:36.029Z,19.08
2023-01-13T15:18:05.723Z,6.43
2023-01-13T15:20:32.046Z,8.52
2023-01-13T15:22:59.623Z,17.35
2023-01-13T15:25:31.257Z,12.13
2023-01-13T15:27:58.744Z,16.02
2023-01-13T15:30:26.055Z,16.85
2023-01-13T15:32:53.443Z,18.95
2023-01-13T15:35:19.989Z,12.32
2023-01-13T15:37:46.880Z,6.47
2023-01-13T15:40:17.719Z,14.65
2023-01-13T15:43:03.026Z,11.07
2023-01-13T15:45:48.375Z,15.70
2023-01-13T15:48:14.778Z,9.60
2023-01-13T15:50:41.089Z,12.73
2023-01-13T15:53:07.806Z,17.95
2023-01-13T15:55:37.036Z,13.95
2023-01-13T15:58:03.698Z,16.67
2023-01-13T16:00:30.057Z,13.88
2023-01-13T16:02:56.558Z,11.85
2023-01-13T16:05:22.971Z,19.52
2023-01-13T16:07:49.295Z,8.73
2023-01-13T16:10:21.054Z,15.68
2023-01-13T16:12:47.463Z,18.90
2023-01-13T16:15:15.509Z,22.73
2023-01-13T16:17:42.430Z,9.43
2023-01-13T16:20:16.141Z,13.38
2023-01-13T16:22:42.530Z,10.18
2023-01-13T16:25:22.070Z,19.10
2023-01-13T16:27:48.690Z,12.32
2023-01-13T16:30:23.313Z,11.63
2023-01-13T16:32:49.709Z,15.88
2023-01-13T16:35:16.201Z,13.88
2023-01-13T16:37:45.104Z,6.43
2023-01-13T16:40:17.947Z,11.60
2023-01-13T16:42:44.309Z,18.73
2023-01-13T16:45:10.832Z,11.73
2023-01-13T16:47:37.225Z,13.05
2023-01-13T16:50:03.863Z,18.20
2023-01-13T16:52:30.239Z,23.33
2023-01-13T16:54:56.537Z,10.10
2023-01-13T16:57:22.884Z,16.73
2023-01-13T16:59:49.318Z,8.90
2023-01-13T17:02:15.801Z,16.45
2023-01-13T17:04:42.710Z,17.45
2023-01-13T17:07:10.775Z,10.15
2023-01-13T17:09:37.095Z,8.60
2023-01-13T17:12:03.463Z,17.80
2023-01-13T17:14:29.827Z,18.13
2023-01-13T17:16:58.013Z,12.35
2023-01-13T17:19:25.486Z,15.00
2023-01-13T17:21:53.058Z,11.35
2023-01-13T17:24:19.388Z,4.70
2023-01-13T17:26:49.601Z,7.78
2023-01-13T17:29:21.674Z,12.15
2023-01-13T17:31:48.610Z,8.82
2023-01-13T17:34:15.032Z,3.50
2023-01-13T17:36:43.234Z,6.72
2023-01-13T17:39:14.733Z,6.97
2023-01-13T17:41:41.022Z,4.38
2023-01-13T17:44:07.309Z,7.43
2023-01-13T17:46:33.622Z,5.90
2023-01-13T17:48:59.958Z,1.75
2023-01-13T17:51:26.322Z,2.90
2023-01-13T17:53:53.245Z,5.97
2023-01-13T17:56:19.710Z,4.68
2023-01-13T17:58:46.769Z,5.32
2023-01-13T18:01:15.249Z,7.03
2023-01-13T18:03:41.956Z,3.22
2023-01-13T18:06:10.704Z,3.85
2023-01-13T18:08:37.115Z,8.38
2023-01-13T18:11:03.444Z,6.63
2023-01-13T18:13:31.445Z,8.88
2023-01-13T18:16:11.506Z,5.15
2023-01-13T18:18:38.453Z,6.72
2023-01-13T18:21:23.963Z,6.28
2023-01-13T18:24:08.844Z,7.20
2023-01-13T18:26:53.698Z,6.53
2023-01-13T18:29:20.327Z,8.70
2023-01-13T18:31:46.661Z,15.10
2023-01-13T18:34:13.032Z,8.90
2023-01-13T18:36:40.575Z,11.10
2023-01-13T18:39:07.133Z,5.20
2023-01-13T18:41:52.339Z,7.70
2023-01-13T18:44:18.756Z,14.90
2023-01-13T18:46:45.143Z,15.18
2023-01-13T18:49:11.458Z,13.88
2023-01-13T18:51:39.912Z,10.30
2023-01-13T18:54:10.321Z,14.95
2023-01-13T18:56:37.042Z,8.75
2023-01-13T18:59:03.553Z,6.68
2023-01-13T19:01:30.018Z,10.23
2023-01-13T19:03:56.940Z,10.48
2023-01-13T19:06:25.823Z,11.75
2023-01-13T19:08:56.026Z,13.23
2023-01-13T19:11:23.457Z,6.90
2023-01-13T19:13:50.674Z,8.85
2023-01-13T19:16:17.711Z,15.10
2023-01-13T19:18:44.087Z,12.73
2023-01-13T19:21:10.537Z,13.27
2023-01-13T19:23:37.070Z,8.52
2023-01-13T19:26:07.805Z,15.32
2023-01-13T19:28:34.832Z,9.38
2023-01-13T19:31:02.130Z,17.35
2023-01-13T19:33:29.845Z,9.45
2023-01-13T19:35:56.460Z,20.17
2023-01-13T19:38:23.374Z,11.98
2023-01-13T19:40:56.651Z,23.00
2023-01-13T19:43:42.618Z,9.57
2023-01-13T19:46:09.054Z,11.23
2023-01-13T19:48:35.577Z,8.77
2023-01-13T19:51:02.377Z,8.77
2023-01-13T19:53:29.265Z,15.05
2023-01-13T19:55:56.068Z,8.55
2023-01-13T19:58:26.202Z,9.15
2023-01-13T20:00:53.659Z,9.35
2023-01-13T20:03:23.571Z,11.30
2023-01-13T20:05:50.569Z,10.55
2023-01-13T20:08:18.004Z,14.57
2023-01-13T20:10:44.943Z,11.65
2023-01-13T20:13:11.549Z,11.27
2023-01-13T20:15:38.597Z,10.20
2023-01-13T20:18:04.950Z,9.25
2023-01-13T20:20:31.330Z,9.15
2023-01-13T20:22:59.377Z,10.70
2023-01-13T20:25:28.548Z,14.05
2023-01-13T20:27:55.731Z,7.20
2023-01-13T20:30:22.926Z,7.13
2023-01-13T20:32:49.227Z,5.15
2023-01-13T20:35:15.610Z,6.05
2023-01-13T20:37:42.623Z,9.63
2023-01-13T20:40:10.247Z,6.53
2023-01-13T20:42:45.002Z,10.98
2023-01-13T20:45:15.273Z,7.93
2023-01-13T20:47:41.630Z,10.30
2023-01-13T20:50:08.422Z,9.65
2023-01-13T20:52:34.857Z,13.55
2023-01-13T20:55:01.198Z,9.23
2023-01-13T20:57:27.587Z,7.93
2023-01-13T20:59:53.941Z,15.38
2023-01-13T21:02:22.542Z,5.65
2023-01-13T21:04:48.950Z,11.23
2023-01-13T21:07:15.390Z,7.25
2023-01-13T21:09:41.816Z,7.78
2023-01-13T21:12:26.864Z,11.10
2023-01-13T21:15:11.796Z,13.35
2023-01-13T21:17:56.589Z,13.57
2023-01-13T21:20:22.905Z,7.43
2023-01-13T21:22:49.545Z,12.27
2023-01-13T21:25:16.565Z,9.18
2023-01-13T21:27:44.051Z,13.57
2023-01-13T21:30:14.856Z,18.10
2023-01-13T21:32:41.859Z,21.35
2023-01-13T21:35:08.455Z,17.17
2023-01-13T21:37:38.253Z,15.82
2023-01-13T21:40:05.843Z,17.75
2023-01-13T21:42:50.774Z,15.95
2023-01-13T21:45:35.618Z,11.52
2023-01-13T21:48:01.955Z,9.40
2023-01-13T21:50:28.447Z,20.10
2023-01-13T21:52:55.612Z,12.57
2023-01-13T21:55:29.579Z,12.73
2023-01-13T21:57:57.691Z,12.77
2023-01-13T22:00:25.629Z,19.00
2023-01-13T22:02:52.232Z,23.15
2023-01-13T22:05:19.690Z,12.93
2023-01-13T22:07:46.065Z,15.45
2023-01-13T22:10:19.465Z,16.58
2023-01-13T22:12:46.805Z,15.13
2023-01-13T22:15:15.193Z,16.00
2023-01-13T22:17:44.852Z,13.30
2023-01-13T22:20:11.797Z,11.95
2023-01-13T22:22:38.671Z,16.90
2023-01-13T22:25:06.941Z,10.43
2023-01-13T22:27:39.116Z,17.67
2023-01-13T22:30:07.049Z,14.85
2023-01-13T22:32:35.132Z,9.13
2023-01-13T22:35:01.503Z,17.95
2023-01-13T22:37:27.935Z,16.27
2023-01-13T22:39:54.225Z,20.23
2023-01-13T22:42:20.640Z,15.32
2023-01-13T22:44:46.994Z,10.05
2023-01-13T22:47:13.342Z,17.75
2023-01-13T22:49:39.760Z,10.35
2023-01-13T22:52:06.182Z,16.08
2023-01-13T22:54:32.529Z,11.10
2023-01-13T22:56:58.911Z,10.07
2023-01-13T22:59:25.312Z,12.30
2023-01-13T23:01:51.628Z,13.88
2023-01-13T23:04:18.062Z,11.27
2023-01-13T23:06:44.450Z,15.82
2023-01-13T23:09:10.959Z,18.63
2023-01-13T23:11:37.424Z,15.23
2023-01-13T23:14:05.381Z,14.77
2023-01-13T23:16:33.165Z,11.48
2023-01-13T23:18:59.548Z,21.10
2023-01-13T23:21:27.172Z,24.15
2023-01-13T23:23:53.658Z,21.27
2023-01-13T23:26:20.485Z,21.00
2023-01-13T23:28:47.216Z,16.80
2023-01-13T23:31:18.538Z,9.90
2023-01-13T23:33:45.312Z,12.13
2023-01-13T23:36:13.183Z,18.45
2023-01-13T23:38:40.243Z,21.70
2023-01-13T23:41:07.694Z,13.95
2023-01-13T23:43:34.087Z,17.63
2023-01-13T23:46:07.527Z,16.00
2023-01-13T23:48:34.192Z,15.63
2023-01-13T23:51:01.118Z,12.27
2023-01-13T23:53:33.206Z,17.65
2023-01-13T23:56:00.657Z,14.10
2023-01-13T23:58:27.359Z,15.30
